sensor_id;sensor_type;location;lat;lon;timestamp;temperature;humidity
37456;DHT22;23316;50.718;7.328;2022-12-29T00:01:44;14.00;56.30
37456;DHT22;23316;50.718;7.328;2022-12-29T00:04:13;14.00;56.40
37456;DHT22;23316;50.718;7.328;2022-12-29T00:06:40;14.00;56.30
37456;DHT22;23316;50.718;7.328;2022-12-29T00:09:08;14.00;56.40
37456;DHT22;23316;50.718;7.328;2022-12-29T00:11:35;14.10;56.50
37456;DHT22;23316;50.718;7.328;2022-12-29T00:14:02;14.10;56.40
37456;DHT22;23316;50.718;7.328;2022-12-29T00:16:48;14.10;56.40
37456;DHT22;23316;50.718;7.328;2022-12-29T00:19:15;14.10;56.40
37456;DHT22;23316;50.718;7.328;2022-12-29T00:21:57;14.20;56.40
37456;DHT22;23316;50.718;7.328;2022-12-29T00:24:42;14.10;56.40
37456;DHT22;23316;50.718;7.328;2022-12-29T00:27:28;14.20;57.00
37456;DHT22;23316;50.718;7.328;2022-12-29T00:30:15;14.10;56.40
37456;DHT22;23316;50.718;7.328;2022-12-29T00:33:04;14.20;56.40
37456;DHT22;23316;50.718;7.328;2022-12-29T00:35:54;14.20;56.50
37456;DHT22;23316;50.718;7.328;2022-12-29T00:38:23;14.20;56.40
37456;DHT22;23316;50.718;7.328;2022-12-29T00:41:08;14.20;56.50
37456;DHT22;23316;50.718;7.328;2022-12-29T00:43:52;14.20;56.50
37456;DHT22;23316;50.718;7.328;2022-12-29T00:46:32;14.20;56.50
37456;DHT22;23316;50.718;7.328;2022-12-29T00:49:01;14.20;56.60
37456;DHT22;23316;50.718;7.328;2022-12-29T00:51:47;14.20;56.60
37456;DHT22;23316;50.718;7.328;2022-12-29T00:54:15;14.20;56.50
37456;DHT22;23316;50.718;7.328;2022-12-29T00:56:42;14.20;56.50
37456;DHT22;23316;50.718;7.328;2022-12-29T00:59:10;14.20;56.50
37456;DHT22;23316;50.718;7.328;2022-12-29T01:01:39;14.30;56.60
37456;DHT22;23316;50.718;7.328;2022-12-29T01:04:08;14.30;56.50
37456;DHT22;23316;50.718;7.328;2022-12-29T01:06:36;14.20;56.50
37456;DHT22;23316;50.718;7.328;2022-12-29T01:09:04;14.30;56.50
37456;DHT22;23316;50.718;7.328;2022-12-29T01:11:49;14.30;56.50
37456;DHT22;23316;50.718;7.328;2022-12-29T01:14:17;14.30;56.40
37456;DHT22;23316;50.718;7.328;2022-12-29T01:16:46;14.20;56.40
37456;DHT22;23316;50.718;7.328;2022-12-29T01:19:15;14.20;56.30
37456;DHT22;23316;50.718;7.328;2022-12-29T01:21:43;14.30;56.30
37456;DHT22;23316;50.718;7.328;2022-12-29T01:24:10;14.20;56.30
37456;DHT22;23316;50.718;7.328;2022-12-29T01:26:38;14.20;56.10
37456;DHT22;23316;50.718;7.328;2022-12-29T01:29:05;14.20;56.20
37456;DHT22;23316;50.718;7.328;2022-12-29T01:31:32;14.20;56.20
37456;DHT22;23316;50.718;7.328;2022-12-29T01:33:59;14.20;56.10
37456;DHT22;23316;50.718;7.328;2022-12-29T01:36:28;14.20;56.00
37456;DHT22;23316;50.718;7.328;2022-12-29T01:38:56;14.20;56.00
37456;DHT22;23316;50.718;7.328;2022-12-29T01:41:23;14.20;55.90
37456;DHT22;23316;50.718;7.328;2022-12-29T01:43:53;14.20;55.90
37456;DHT22;23316;50.718;7.328;2022-12-29T01:46:23;14.20;55.70
37456;DHT22;23316;50.718;7.328;2022-12-29T01:48:54;14.20;55.70
37456;DHT22;23316;50.718;7.328;2022-12-29T01:51:23;14.30;55.70
37456;DHT22;23316;50.718;7.328;2022-12-29T01:53:53;14.20;55.50
37456;DHT22;23316;50.718;7.328;2022-12-29T01:56:22;14.20;55.50
37456;DHT22;23316;50.718;7.328;2022-12-29T01:59:01;14.20;55.40
37456;DHT22;23316;50.718;7.328;2022-12-29T02:01:29;14.30;55.30
37456;DHT22;23316;50.718;7.328;2022-12-29T02:03:56;14.30;55.40
37456;DHT22;23316;50.718;7.328;2022-12-29T02:06:28;14.30;55.30
37456;DHT22;23316;50.718;7.328;2022-12-29T02:08:57;14.30;55.40
37456;DHT22;23316;50.718;7.328;2022-12-29T02:11:26;14.30;55.30
37456;DHT22;23316;50.718;7.328;2022-12-29T02:13:54;14.30;55.30
37456;DHT22;23316;50.718;7.328;2022-12-29T02:16:36;14.30;55.30
37456;DHT22;23316;50.718;7.328;2022-12-29T02:19:24;14.30;55.10
37456;DHT22;23316;50.718;7.328;2022-12-29T02:22:09;14.30;55.10
37456;DHT22;23316;50.718;7.328;2022-12-29T02:27:51;14.30;55.20
37456;DHT22;23316;50.718;7.328;2022-12-29T02:30:42;14.30;55.20
37456;DHT22;23316;50.718;7.328;2022-12-29T02:33:32;14.30;55.30
37456;DHT22;23316;50.718;7.328;2022-12-29T02:36:07;14.40;55.40
37456;DHT22;23316;50.718;7.328;2022-12-29T02:38:48;14.40;55.50
37456;DHT22;23316;50.718;7.328;2022-12-29T02:41:21;14.40;55.50
37456;DHT22;23316;50.718;7.328;2022-12-29T02:43:54;14.40;55.60
37456;DHT22;23316;50.718;7.328;2022-12-29T02:46:28;14.40;55.70
37456;DHT22;23316;50.718;7.328;2022-12-29T02:49:06;14.40;55.70
37456;DHT22;23316;50.718;7.328;2022-12-29T02:51:37;14.40;55.70
37456;DHT22;23316;50.718;7.328;2022-12-29T02:54:06;14.50;55.80
37456;DHT22;23316;50.718;7.328;2022-12-29T02:56:52;14.50;55.80
37456;DHT22;23316;50.718;7.328;2022-12-29T02:59:19;14.50;55.80
37456;DHT22;23316;50.718;7.328;2022-12-29T03:02:05;14.50;55.90
37456;DHT22;23316;50.718;7.328;2022-12-29T03:04:54;14.50;55.90
37456;DHT22;23316;50.718;7.328;2022-12-29T03:07:28;14.50;56.00
37456;DHT22;23316;50.718;7.328;2022-12-29T03:10:07;14.50;56.10
37456;DHT22;23316;50.718;7.328;2022-12-29T03:12:41;14.50;56.20
37456;DHT22;23316;50.718;7.328;2022-12-29T03:15:33;14.50;56.20
37456;DHT22;23316;50.718;7.328;2022-12-29T03:18:22;14.50;56.30
37456;DHT22;23316;50.718;7.328;2022-12-29T03:20:53;14.50;56.20
37456;DHT22;23316;50.718;7.328;2022-12-29T03:23:22;14.50;56.20
37456;DHT22;23316;50.718;7.328;2022-12-29T03:25:53;14.50;56.20
37456;DHT22;23316;50.718;7.328;2022-12-29T03:28:24;14.50;56.30
37456;DHT22;23316;50.718;7.328;2022-12-29T03:30:52;14.50;56.20
37456;DHT22;23316;50.718;7.328;2022-12-29T03:33:23;14.50;56.20
37456;DHT22;23316;50.718;7.328;2022-12-29T03:35:54;14.50;56.20
37456;DHT22;23316;50.718;7.328;2022-12-29T03:38:30;14.50;56.20
37456;DHT22;23316;50.718;7.328;2022-12-29T03:41:04;14.50;56.30
37456;DHT22;23316;50.718;7.328;2022-12-29T03:43:33;14.50;56.40
37456;DHT22;23316;50.718;7.328;2022-12-29T03:46:01;14.50;56.30
37456;DHT22;23316;50.718;7.328;2022-12-29T03:48:29;14.50;56.40
37456;DHT22;23316;50.718;7.328;2022-12-29T03:50:58;14.50;56.40
37456;DHT22;23316;50.718;7.328;2022-12-29T03:53:26;14.50;56.50
37456;DHT22;23316;50.718;7.328;2022-12-29T03:55:53;14.50;56.40
37456;DHT22;23316;50.718;7.328;2022-12-29T03:58:20;14.50;56.40
37456;DHT22;23316;50.718;7.328;2022-12-29T04:00:47;14.50;56.40
37456;DHT22;23316;50.718;7.328;2022-12-29T04:03:15;14.50;56.40
37456;DHT22;23316;50.718;7.328;2022-12-29T04:05:43;14.60;56.40
37456;DHT22;23316;50.718;7.328;2022-12-29T04:08:10;14.50;56.30
37456;DHT22;23316;50.718;7.328;2022-12-29T04:10:38;14.50;56.30
37456;DHT22;23316;50.718;7.328;2022-12-29T04:13:05;14.60;56.30
37456;DHT22;23316;50.718;7.328;2022-12-29T04:15:32;14.60;56.20
37456;DHT22;23316;50.718;7.328;2022-12-29T04:17:59;14.50;56.10
37456;DHT22;23316;50.718;7.328;2022-12-29T04:20:27;14.50;56.10
37456;DHT22;23316;50.718;7.328;2022-12-29T04:23:13;14.50;56.10
37456;DHT22;23316;50.718;7.328;2022-12-29T04:25:40;14.50;56.10
37456;DHT22;23316;50.718;7.328;2022-12-29T04:28:07;14.50;56.00
37456;DHT22;23316;50.718;7.328;2022-12-29T04:30:35;14.50;56.00
37456;DHT22;23316;50.718;7.328;2022-12-29T04:33:03;14.50;56.00
37456;DHT22;23316;50.718;7.328;2022-12-29T04:35:30;14.50;55.90
37456;DHT22;23316;50.718;7.328;2022-12-29T04:37:57;14.50;55.90
37456;DHT22;23316;50.718;7.328;2022-12-29T04:40:26;14.50;55.90
37456;DHT22;23316;50.718;7.328;2022-12-29T04:42:53;14.50;55.80
37456;DHT22;23316;50.718;7.328;2022-12-29T04:45:21;14.50;55.90
37456;DHT22;23316;50.718;7.328;2022-12-29T04:47:48;14.50;55.70
37456;DHT22;23316;50.718;7.328;2022-12-29T04:50:15;14.50;55.60
37456;DHT22;23316;50.718;7.328;2022-12-29T04:52:43;14.50;55.60
37456;DHT22;23316;50.718;7.328;2022-12-29T04:55:10;14.50;55.60
37456;DHT22;23316;50.718;7.328;2022-12-29T04:57:39;14.50;55.50
37456;DHT22;23316;50.718;7.328;2022-12-29T05:00:08;14.50;55.50
37456;DHT22;23316;50.718;7.328;2022-12-29T05:02:36;14.50;55.50
37456;DHT22;23316;50.718;7.328;2022-12-29T05:05:04;14.50;55.50
37456;DHT22;23316;50.718;7.328;2022-12-29T05:07:31;14.50;55.40
37456;DHT22;23316;50.718;7.328;2022-12-29T05:09:59;14.50;55.40
37456;DHT22;23316;50.718;7.328;2022-12-29T05:12:29;14.50;55.30
37456;DHT22;23316;50.718;7.328;2022-12-29T05:14:59;14.50;55.40
37456;DHT22;23316;50.718;7.328;2022-12-29T05:17:26;14.50;55.50
37456;DHT22;23316;50.718;7.328;2022-12-29T05:19:54;14.50;55.70
37456;DHT22;23316;50.718;7.328;2022-12-29T05:22:21;14.50;55.90
37456;DHT22;23316;50.718;7.328;2022-12-29T05:24:48;14.50;56.10
37456;DHT22;23316;50.718;7.328;2022-12-29T05:27:15;14.50;56.20
37456;DHT22;23316;50.718;7.328;2022-12-29T05:29:43;14.50;56.40
37456;DHT22;23316;50.718;7.328;2022-12-29T05:32:11;14.50;56.50
37456;DHT22;23316;50.718;7.328;2022-12-29T05:34:39;14.50;56.60
37456;DHT22;23316;50.718;7.328;2022-12-29T05:37:06;14.50;56.70
37456;DHT22;23316;50.718;7.328;2022-12-29T05:39:33;14.50;56.70
37456;DHT22;23316;50.718;7.328;2022-12-29T05:42:00;14.50;56.80
37456;DHT22;23316;50.718;7.328;2022-12-29T05:44:27;14.40;56.80
37456;DHT22;23316;50.718;7.328;2022-12-29T05:46:55;14.50;56.90
37456;DHT22;23316;50.718;7.328;2022-12-29T05:49:23;14.50;56.90
37456;DHT22;23316;50.718;7.328;2022-12-29T05:51:50;14.40;56.90
37456;DHT22;23316;50.718;7.328;2022-12-29T05:54:18;14.50;57.00
37456;DHT22;23316;50.718;7.328;2022-12-29T05:56:45;14.40;56.90
37456;DHT22;23316;50.718;7.328;2022-12-29T05:59:12;14.40;57.10
37456;DHT22;23316;50.718;7.328;2022-12-29T06:01:39;14.40;57.00
37456;DHT22;23316;50.718;7.328;2022-12-29T06:04:07;14.40;57.00
37456;DHT22;23316;50.718;7.328;2022-12-29T06:06:35;14.40;57.00
37456;DHT22;23316;50.718;7.328;2022-12-29T06:09:03;14.40;57.00
37456;DHT22;23316;50.718;7.328;2022-12-29T06:11:30;14.40;57.00
37456;DHT22;23316;50.718;7.328;2022-12-29T06:13:57;14.50;57.10
37456;DHT22;23316;50.718;7.328;2022-12-29T06:16:24;14.50;57.10
37456;DHT22;23316;50.718;7.328;2022-12-29T06:18:51;14.50;57.10
37456;DHT22;23316;50.718;7.328;2022-12-29T06:21:19;14.50;57.00
37456;DHT22;23316;50.718;7.328;2022-12-29T06:23:48;14.50;57.10
37456;DHT22;23316;50.718;7.328;2022-12-29T06:26:15;14.40;57.10
37456;DHT22;23316;50.718;7.328;2022-12-29T06:28:42;14.50;57.10
37456;DHT22;23316;50.718;7.328;2022-12-29T06:31:09;14.50;57.30
37456;DHT22;23316;50.718;7.328;2022-12-29T06:33:37;14.50;57.30
37456;DHT22;23316;50.718;7.328;2022-12-29T06:36:05;14.50;57.40
37456;DHT22;23316;50.718;7.328;2022-12-29T06:38:33;14.50;57.50
37456;DHT22;23316;50.718;7.328;2022-12-29T06:41:03;14.50;57.50
37456;DHT22;23316;50.718;7.328;2022-12-29T06:43:31;14.50;57.60
37456;DHT22;23316;50.718;7.328;2022-12-29T06:46:00;14.50;57.70
37456;DHT22;23316;50.718;7.328;2022-12-29T06:48:28;14.50;57.70
37456;DHT22;23316;50.718;7.328;2022-12-29T06:50:56;14.40;57.70
37456;DHT22;23316;50.718;7.328;2022-12-29T06:53:24;14.40;57.80
37456;DHT22;23316;50.718;7.328;2022-12-29T06:55:51;14.50;57.90
37456;DHT22;23316;50.718;7.328;2022-12-29T06:58:20;14.40;57.90
37456;DHT22;23316;50.718;7.328;2022-12-29T07:00:48;14.40;57.90
37456;DHT22;23316;50.718;7.328;2022-12-29T07:03:15;14.40;58.00
37456;DHT22;23316;50.718;7.328;2022-12-29T07:05:42;14.40;58.10
37456;DHT22;23316;50.718;7.328;2022-12-29T07:08:09;14.40;58.20
37456;DHT22;23316;50.718;7.328;2022-12-29T07:10:37;14.40;58.40
37456;DHT22;23316;50.718;7.328;2022-12-29T07:13:04;14.40;58.30
37456;DHT22;23316;50.718;7.328;2022-12-29T07:15:36;14.40;58.30
37456;DHT22;23316;50.718;7.328;2022-12-29T07:18:03;14.40;58.30
37456;DHT22;23316;50.718;7.328;2022-12-29T07:20:31;14.30;58.40
37456;DHT22;23316;50.718;7.328;2022-12-29T07:22:58;14.30;58.50
37456;DHT22;23316;50.718;7.328;2022-12-29T07:25:26;14.30;58.70
37456;DHT22;23316;50.718;7.328;2022-12-29T07:27:53;14.30;58.70
37456;DHT22;23316;50.718;7.328;2022-12-29T07:30:20;14.30;58.70
37456;DHT22;23316;50.718;7.328;2022-12-29T07:32:49;14.30;58.80
37456;DHT22;23316;50.718;7.328;2022-12-29T07:35:19;14.20;58.70
37456;DHT22;23316;50.718;7.328;2022-12-29T07:37:49;14.20;58.70
37456;DHT22;23316;50.718;7.328;2022-12-29T07:40:17;14.20;58.60
37456;DHT22;23316;50.718;7.328;2022-12-29T07:42:44;14.20;58.60
37456;DHT22;23316;50.718;7.328;2022-12-29T07:45:11;14.20;58.60
37456;DHT22;23316;50.718;7.328;2022-12-29T07:47:38;14.20;58.60
37456;DHT22;23316;50.718;7.328;2022-12-29T07:50:07;14.20;58.40
37456;DHT22;23316;50.718;7.328;2022-12-29T07:52:35;14.10;58.30
37456;DHT22;23316;50.718;7.328;2022-12-29T07:55:02;14.10;58.10
37456;DHT22;23316;50.718;7.328;2022-12-29T07:57:29;14.10;58.00
37456;DHT22;23316;50.718;7.328;2022-12-29T07:59:57;14.00;57.90
37456;DHT22;23316;50.718;7.328;2022-12-29T08:02:24;14.00;57.70
37456;DHT22;23316;50.718;7.328;2022-12-29T08:04:52;14.00;57.60
37456;DHT22;23316;50.718;7.328;2022-12-29T08:07:20;14.00;57.50
37456;DHT22;23316;50.718;7.328;2022-12-29T08:09:48;14.00;57.30
37456;DHT22;23316;50.718;7.328;2022-12-29T08:12:15;13.90;57.30
37456;DHT22;23316;50.718;7.328;2022-12-29T08:14:42;13.90;57.20
37456;DHT22;23316;50.718;7.328;2022-12-29T08:17:09;13.90;57.20
37456;DHT22;23316;50.718;7.328;2022-12-29T08:19:37;13.90;57.10
37456;DHT22;23316;50.718;7.328;2022-12-29T08:22:04;13.90;57.00
37456;DHT22;23316;50.718;7.328;2022-12-29T08:24:33;13.90;57.00
37456;DHT22;23316;50.718;7.328;2022-12-29T08:27:00;13.90;57.00
37456;DHT22;23316;50.718;7.328;2022-12-29T08:29:27;13.90;57.00
37456;DHT22;23316;50.718;7.328;2022-12-29T08:31:55;13.90;56.80
37456;DHT22;23316;50.718;7.328;2022-12-29T08:34:22;13.90;56.70
37456;DHT22;23316;50.718;7.328;2022-12-29T08:36:49;13.90;56.60
37456;DHT22;23316;50.718;7.328;2022-12-29T08:39:17;13.90;56.70
37456;DHT22;23316;50.718;7.328;2022-12-29T08:41:47;13.90;56.70
37456;DHT22;23316;50.718;7.328;2022-12-29T08:44:14;13.90;56.60
37456;DHT22;23316;50.718;7.328;2022-12-29T08:46:43;13.90;56.50
37456;DHT22;23316;50.718;7.328;2022-12-29T08:49:10;13.90;56.50
37456;DHT22;23316;50.718;7.328;2022-12-29T08:51:38;13.90;56.40
37456;DHT22;23316;50.718;7.328;2022-12-29T08:54:06;13.90;56.40
37456;DHT22;23316;50.718;7.328;2022-12-29T08:56:34;13.90;56.40
37456;DHT22;23316;50.718;7.328;2022-12-29T08:59:02;13.90;56.30
37456;DHT22;23316;50.718;7.328;2022-12-29T09:01:30;13.90;56.20
37456;DHT22;23316;50.718;7.328;2022-12-29T09:03:57;13.90;56.20
37456;DHT22;23316;50.718;7.328;2022-12-29T09:06:24;13.90;56.20
37456;DHT22;23316;50.718;7.328;2022-12-29T09:08:53;13.90;56.20
37456;DHT22;23316;50.718;7.328;2022-12-29T09:11:23;13.90;56.20
37456;DHT22;23316;50.718;7.328;2022-12-29T09:13:51;13.90;56.10
37456;DHT22;23316;50.718;7.328;2022-12-29T09:16:21;14.00;56.10
37456;DHT22;23316;50.718;7.328;2022-12-29T09:18:48;14.00;56.00
37456;DHT22;23316;50.718;7.328;2022-12-29T09:21:16;14.00;55.90
37456;DHT22;23316;50.718;7.328;2022-12-29T09:23:43;14.00;55.80
37456;DHT22;23316;50.718;7.328;2022-12-29T09:26:10;14.00;55.80
37456;DHT22;23316;50.718;7.328;2022-12-29T09:28:37;14.00;55.70
37456;DHT22;23316;50.718;7.328;2022-12-29T09:31:05;14.00;55.70
37456;DHT22;23316;50.718;7.328;2022-12-29T09:33:34;14.00;55.70
37456;DHT22;23316;50.718;7.328;2022-12-29T09:36:02;14.00;55.60
37456;DHT22;23316;50.718;7.328;2022-12-29T09:38:29;14.00;55.60
37456;DHT22;23316;50.718;7.328;2022-12-29T09:41:01;14.00;55.60
37456;DHT22;23316;50.718;7.328;2022-12-29T09:43:43;14.00;55.40
37456;DHT22;23316;50.718;7.328;2022-12-29T09:46:21;14.00;55.40
37456;DHT22;23316;50.718;7.328;2022-12-29T09:48:57;14.00;55.30
37456;DHT22;23316;50.718;7.328;2022-12-29T09:51:27;14.00;55.20
37456;DHT22;23316;50.718;7.328;2022-12-29T09:53:57;14.00;55.20
37456;DHT22;23316;50.718;7.328;2022-12-29T09:56:26;14.00;55.00
37456;DHT22;23316;50.718;7.328;2022-12-29T09:58:57;14.00;54.80
37456;DHT22;23316;50.718;7.328;2022-12-29T10:01:30;14.00;54.70
37456;DHT22;23316;50.718;7.328;2022-12-29T10:04:01;14.00;54.60
37456;DHT22;23316;50.718;7.328;2022-12-29T10:06:35;14.00;54.60
37456;DHT22;23316;50.718;7.328;2022-12-29T10:09:10;14.00;54.60
37456;DHT22;23316;50.718;7.328;2022-12-29T10:11:54;13.90;54.60
37456;DHT22;23316;50.718;7.328;2022-12-29T10:14:47;13.90;54.60
37456;DHT22;23316;50.718;7.328;2022-12-29T10:17:27;14.00;54.60
37456;DHT22;23316;50.718;7.328;2022-12-29T10:47:36;14.00;54.30
37456;DHT22;23316;50.718;7.328;2022-12-29T10:50:05;14.00;54.30
37456;DHT22;23316;50.718;7.328;2022-12-29T10:52:33;14.00;54.20
37456;DHT22;23316;50.718;7.328;2022-12-29T10:55:04;14.00;54.10
37456;DHT22;23316;50.718;7.328;2022-12-29T10:57:37;14.00;54.10
37456;DHT22;23316;50.718;7.328;2022-12-29T11:00:12;14.00;54.10
37456;DHT22;23316;50.718;7.328;2022-12-29T11:02:58;14.00;54.00
37456;DHT22;23316;50.718;7.328;2022-12-29T11:05:33;14.00;53.90
37456;DHT22;23316;50.718;7.328;2022-12-29T11:08:04;14.00;53.90
37456;DHT22;23316;50.718;7.328;2022-12-29T11:10:37;14.00;54.00
37456;DHT22;23316;50.718;7.328;2022-12-29T11:13:12;14.00;53.70
37456;DHT22;23316;50.718;7.328;2022-12-29T11:15:41;14.00;53.50
37456;DHT22;23316;50.718;7.328;2022-12-29T11:18:21;14.00;53.60
37456;DHT22;23316;50.718;7.328;2022-12-29T11:20:50;14.00;53.30
37456;DHT22;23316;50.718;7.328;2022-12-29T11:23:28;14.00;53.40
37456;DHT22;23316;50.718;7.328;2022-12-29T11:26:16;13.90;53.40
37456;DHT22;23316;50.718;7.328;2022-12-29T11:28:45;13.90;53.30
37456;DHT22;23316;50.718;7.328;2022-12-29T11:31:17;13.90;53.40
37456;DHT22;23316;50.718;7.328;2022-12-29T11:33:45;13.90;53.30
37456;DHT22;23316;50.718;7.328;2022-12-29T11:36:16;13.90;53.30
37456;DHT22;23316;50.718;7.328;2022-12-29T11:38:47;13.90;53.30
37456;DHT22;23316;50.718;7.328;2022-12-29T11:41:21;13.90;53.30
37456;DHT22;23316;50.718;7.328;2022-12-29T11:43:49;13.90;53.10
37456;DHT22;23316;50.718;7.328;2022-12-29T11:46:20;13.90;53.10
37456;DHT22;23316;50.718;7.328;2022-12-29T11:48:51;14.00;53.00
37456;DHT22;23316;50.718;7.328;2022-12-29T11:51:22;14.00;53.10
37456;DHT22;23316;50.718;7.328;2022-12-29T11:53:52;14.00;53.10
37456;DHT22;23316;50.718;7.328;2022-12-29T11:56:33;14.00;53.00
37456;DHT22;23316;50.718;7.328;2022-12-29T11:59:35;14.00;52.90
37456;DHT22;23316;50.718;7.328;2022-12-29T12:02:18;14.00;52.90
37456;DHT22;23316;50.718;7.328;2022-12-29T12:04:51;14.00;52.80
37456;DHT22;23316;50.718;7.328;2022-12-29T12:07:24;14.00;52.70
37456;DHT22;23316;50.718;7.328;2022-12-29T12:09:58;14.00;52.50
37456;DHT22;23316;50.718;7.328;2022-12-29T12:12:31;14.00;52.60
37456;DHT22;23316;50.718;7.328;2022-12-29T12:15:02;14.00;52.60
37456;DHT22;23316;50.718;7.328;2022-12-29T12:17:33;14.00;52.50
37456;DHT22;23316;50.718;7.328;2022-12-29T12:20:16;14.00;52.60
37456;DHT22;23316;50.718;7.328;2022-12-29T12:22:49;14.00;52.20
37456;DHT22;23316;50.718;7.328;2022-12-29T12:25:20;14.00;52.10
37456;DHT22;23316;50.718;7.328;2022-12-29T12:28:00;14.00;52.40
37456;DHT22;23316;50.718;7.328;2022-12-29T12:30:38;14.00;52.30
37456;DHT22;23316;50.718;7.328;2022-12-29T12:33:18;14.00;52.20
37456;DHT22;23316;50.718;7.328;2022-12-29T12:36:15;14.00;52.20
37456;DHT22;23316;50.718;7.328;2022-12-29T12:38:55;14.00;52.30
37456;DHT22;23316;50.718;7.328;2022-12-29T12:41:45;14.00;52.30
37456;DHT22;23316;50.718;7.328;2022-12-29T12:44:27;14.00;52.10
37456;DHT22;23316;50.718;7.328;2022-12-29T12:47:21;14.00;52.10
37456;DHT22;23316;50.718;7.328;2022-12-29T12:50:22;14.00;52.10
37456;DHT22;23316;50.718;7.328;2022-12-29T12:53:26;14.00;52.10
37456;DHT22;23316;50.718;7.328;2022-12-29T12:59:59;14.00;52.00
37456;DHT22;23316;50.718;7.328;2022-12-29T13:02:40;14.00;52.10
37456;DHT22;23316;50.718;7.328;2022-12-29T13:05:20;14.00;52.00
37456;DHT22;23316;50.718;7.328;2022-12-29T13:07:59;14.00;52.10
37456;DHT22;23316;50.718;7.328;2022-12-29T13:10:39;14.00;52.20
37456;DHT22;23316;50.718;7.328;2022-12-29T13:16:20;14.00;52.00
37456;DHT22;23316;50.718;7.328;2022-12-29T13:18:56;14.00;52.20
37456;DHT22;23316;50.718;7.328;2022-12-29T13:21:34;14.00;52.30
37456;DHT22;23316;50.718;7.328;2022-12-29T13:24:12;14.00;52.00
37456;DHT22;23316;50.718;7.328;2022-12-29T13:26:47;14.00;52.10
37456;DHT22;23316;50.718;7.328;2022-12-29T13:29:20;14.00;52.00
37456;DHT22;23316;50.718;7.328;2022-12-29T13:31:55;14.00;51.90
37456;DHT22;23316;50.718;7.328;2022-12-29T13:34:36;14.00;51.90
37456;DHT22;23316;50.718;7.328;2022-12-29T13:37:10;14.00;51.90
37456;DHT22;23316;50.718;7.328;2022-12-29T13:39:41;14.00;51.70
37456;DHT22;23316;50.718;7.328;2022-12-29T13:42:11;14.00;51.80
37456;DHT22;23316;50.718;7.328;2022-12-29T13:44:44;14.00;51.90
37456;DHT22;23316;50.718;7.328;2022-12-29T13:47:20;14.00;51.90
37456;DHT22;23316;50.718;7.328;2022-12-29T13:49:48;14.00;51.60
37456;DHT22;23316;50.718;7.328;2022-12-29T13:52:27;13.90;51.70
37456;DHT22;23316;50.718;7.328;2022-12-29T13:55:02;13.90;51.70
37456;DHT22;23316;50.718;7.328;2022-12-29T13:57:41;14.00;51.50
37456;DHT22;23316;50.718;7.328;2022-12-29T14:00:15;14.00;51.70
37456;DHT22;23316;50.718;7.328;2022-12-29T14:02:58;14.00;51.60
37456;DHT22;23316;50.718;7.328;2022-12-29T14:05:32;13.90;51.50
37456;DHT22;23316;50.718;7.328;2022-12-29T14:08:01;13.90;51.60
37456;DHT22;23316;50.718;7.328;2022-12-29T14:10:32;14.00;51.70
37456;DHT22;23316;50.718;7.328;2022-12-29T14:13:05;14.00;51.90
37456;DHT22;23316;50.718;7.328;2022-12-29T14:15:38;13.90;51.70
37456;DHT22;23316;50.718;7.328;2022-12-29T14:18:13;13.90;51.70
37456;DHT22;23316;50.718;7.328;2022-12-29T14:20:46;13.90;51.70
37456;DHT22;23316;50.718;7.328;2022-12-29T14:23:26;14.00;51.90
37456;DHT22;23316;50.718;7.328;2022-12-29T14:26:09;14.00;52.00
37456;DHT22;23316;50.718;7.328;2022-12-29T14:28:40;13.90;51.90
37456;DHT22;23316;50.718;7.328;2022-12-29T14:31:35;13.90;51.80
37456;DHT22;23316;50.718;7.328;2022-12-29T14:34:30;13.90;51.30
37456;DHT22;23316;50.718;7.328;2022-12-29T14:37:04;13.90;51.60
37456;DHT22;23316;50.718;7.328;2022-12-29T14:39:35;13.90;51.60
37456;DHT22;23316;50.718;7.328;2022-12-29T14:42:05;13.90;51.40
37456;DHT22;23316;50.718;7.328;2022-12-29T14:44:36;13.80;51.30
37456;DHT22;23316;50.718;7.328;2022-12-29T14:47:18;13.80;51.30
37456;DHT22;23316;50.718;7.328;2022-12-29T14:49:46;13.80;51.20
37456;DHT22;23316;50.718;7.328;2022-12-29T14:52:17;13.80;51.40
37456;DHT22;23316;50.718;7.328;2022-12-29T14:54:50;13.80;51.10
37456;DHT22;23316;50.718;7.328;2022-12-29T14:57:35;13.80;51.10
37456;DHT22;23316;50.718;7.328;2022-12-29T15:00:16;13.80;51.10
37456;DHT22;23316;50.718;7.328;2022-12-29T15:02:48;13.70;51.00
37456;DHT22;23316;50.718;7.328;2022-12-29T15:05:27;13.80;51.20
37456;DHT22;23316;50.718;7.328;2022-12-29T15:07:57;13.70;50.80
37456;DHT22;23316;50.718;7.328;2022-12-29T15:10:26;13.70;50.80
37456;DHT22;23316;50.718;7.328;2022-12-29T15:12:54;13.70;50.60
37456;DHT22;23316;50.718;7.328;2022-12-29T15:15:25;13.70;50.80
37456;DHT22;23316;50.718;7.328;2022-12-29T15:17:53;13.70;50.80
37456;DHT22;23316;50.718;7.328;2022-12-29T15:20:25;13.70;50.80
37456;DHT22;23316;50.718;7.328;2022-12-29T15:22:55;13.70;50.60
37456;DHT22;23316;50.718;7.328;2022-12-29T15:25:24;13.70;50.60
37456;DHT22;23316;50.718;7.328;2022-12-29T15:27:53;13.70;50.80
37456;DHT22;23316;50.718;7.328;2022-12-29T15:30:22;13.70;50.80
37456;DHT22;23316;50.718;7.328;2022-12-29T15:32:50;13.70;50.70
37456;DHT22;23316;50.718;7.328;2022-12-29T15:35:28;13.70;50.60
37456;DHT22;23316;50.718;7.328;2022-12-29T15:37:55;13.70;50.50
37456;DHT22;23316;50.718;7.328;2022-12-29T15:40:25;13.70;50.50
37456;DHT22;23316;50.718;7.328;2022-12-29T15:43:17;13.70;50.40
37456;DHT22;23316;50.718;7.328;2022-12-29T15:45:46;13.70;50.20
37456;DHT22;23316;50.718;7.328;2022-12-29T15:48:17;13.70;50.60
37456;DHT22;23316;50.718;7.328;2022-12-29T15:50:45;13.70;50.80
37456;DHT22;23316;50.718;7.328;2022-12-29T15:53:19;13.70;51.00
37456;DHT22;23316;50.718;7.328;2022-12-29T15:55:51;13.70;51.10
37456;DHT22;23316;50.718;7.328;2022-12-29T15:58:20;13.70;51.20
37456;DHT22;23316;50.718;7.328;2022-12-29T16:00:51;13.70;51.30
37456;DHT22;23316;50.718;7.328;2022-12-29T16:03:19;13.70;51.20
37456;DHT22;23316;50.718;7.328;2022-12-29T16:05:52;13.60;51.10
37456;DHT22;23316;50.718;7.328;2022-12-29T16:08:29;13.60;51.10
37456;DHT22;23316;50.718;7.328;2022-12-29T16:11:00;13.60;51.10
37456;DHT22;23316;50.718;7.328;2022-12-29T16:13:30;13.60;50.90
37456;DHT22;23316;50.718;7.328;2022-12-29T16:16:07;13.50;50.70
37456;DHT22;23316;50.718;7.328;2022-12-29T16:18:36;13.50;50.70
37456;DHT22;23316;50.718;7.328;2022-12-29T16:21:12;13.50;50.80
37456;DHT22;23316;50.718;7.328;2022-12-29T16:23:46;13.40;50.80
37456;DHT22;23316;50.718;7.328;2022-12-29T16:26:16;13.40;50.90
37456;DHT22;23316;50.718;7.328;2022-12-29T16:28:47;13.40;51.00
37456;DHT22;23316;50.718;7.328;2022-12-29T16:31:21;13.40;51.10
37456;DHT22;23316;50.718;7.328;2022-12-29T16:33:51;13.30;51.10
37456;DHT22;23316;50.718;7.328;2022-12-29T16:36:31;13.30;51.30
37456;DHT22;23316;50.718;7.328;2022-12-29T16:39:17;13.30;51.20